Terminal Aerodrome Forecast
Issued by NWS

Home | Current Version | Previous Version | Text Only | Print | Product List | Glossary On
Versions: 1 2 3 4 5 6 7 8 9 10 11 12 13 14
586
FTPA31 PHFO 221120
TAFHNY
TAF
PHNY 221120Z 2212/2312 VRB05KT P6SM SCT015 SCT025
      TEMPO 2212/2216 BKN025
     FM222200 04017G25KT P6SM FEW025 SCT035
     FM230500 04013G20KT P6SM FEW025=

USA.gov is the U.S. government's official web portal to all federal, state and local government web resources and services.